sensor_id;sensor_type;location;lat;lon;timestamp;P1;durP1;ratioP1;P2;durP2;ratioP2
59390;SDS011;53405;57.012;40.984;2022-07-29T00:00:11;18.13;;;14.75;;
59390;SDS011;53405;57.012;40.984;2022-07-29T00:02:59;17.63;;;15.18;;
59390;SDS011;53405;57.012;40.984;2022-07-29T00:05:47;17.20;;;14.70;;
59390;SDS011;53405;57.012;40.984;2022-07-29T00:08:34;19.40;;;15.20;;
59390;SDS011;53405;57.012;40.984;2022-07-29T00:11:22;17.20;;;14.73;;
59390;SDS011;53405;57.012;40.984;2022-07-29T00:14:10;16.58;;;11.07;;
59390;SDS011;53405;57.012;40.984;2022-07-29T00:16:57;15.60;;;11.95;;
59390;SDS011;53405;57.012;40.984;2022-07-29T00:19:45;16.15;;;13.25;;
59390;SDS011;53405;57.012;40.984;2022-07-29T00:22:32;15.30;;;11.48;;
59390;SDS011;53405;57.012;40.984;2022-07-29T00:25:20;15.55;;;11.43;;
59390;SDS011;53405;57.012;40.984;2022-07-29T00:28:07;17.55;;;11.82;;
59390;SDS011;53405;57.012;40.984;2022-07-29T00:30:54;13.40;;;10.98;;
59390;SDS011;53405;57.012;40.984;2022-07-29T00:33:42;15.05;;;11.00;;
59390;SDS011;53405;57.012;40.984;2022-07-29T00:36:29;12.98;;;11.27;;
59390;SDS011;53405;57.012;40.984;2022-07-29T00:39:17;14.88;;;12.48;;
59390;SDS011;53405;57.012;40.984;2022-07-29T00:42:05;13.25;;;11.40;;
59390;SDS011;53405;57.012;40.984;2022-07-29T00:44:52;14.55;;;11.63;;
59390;SDS011;53405;57.012;40.984;2022-07-29T00:47:40;17.58;;;12.77;;
59390;SDS011;53405;57.012;40.984;2022-07-29T00:50:27;14.93;;;13.00;;
59390;SDS011;53405;57.012;40.984;2022-07-29T00:53:15;15.73;;;11.68;;
59390;SDS011;53405;57.012;40.984;2022-07-29T00:56:03;16.30;;;12.90;;
59390;SDS011;53405;57.012;40.984;2022-07-29T00:58:51;15.00;;;12.98;;
59390;SDS011;53405;57.012;40.984;2022-07-29T01:01:39;18.27;;;14.32;;
59390;SDS011;53405;57.012;40.984;2022-07-29T01:04:26;17.73;;;13.40;;
59390;SDS011;53405;57.012;40.984;2022-07-29T01:07:14;15.98;;;13.35;;
59390;SDS011;53405;57.012;40.984;2022-07-29T01:10:03;17.10;;;14.77;;
59390;SDS011;53405;57.012;40.984;2022-07-29T01:15:51;19.90;;;14.52;;
59390;SDS011;53405;57.012;40.984;2022-07-29T01:18:44;16.42;;;13.00;;
59390;SDS011;53405;57.012;40.984;2022-07-29T01:25:26;16.42;;;12.90;;
59390;SDS011;53405;57.012;40.984;2022-07-29T01:30:50;17.83;;;13.68;;
59390;SDS011;53405;57.012;40.984;2022-07-29T01:33:41;18.27;;;13.70;;
59390;SDS011;53405;57.012;40.984;2022-07-29T01:36:46;15.25;;;12.40;;
59390;SDS011;53405;57.012;40.984;2022-07-29T01:39:38;17.45;;;12.75;;
59390;SDS011;53405;57.012;40.984;2022-07-29T01:42:42;15.63;;;12.32;;
59390;SDS011;53405;57.012;40.984;2022-07-29T01:45:40;15.07;;;12.10;;
59390;SDS011;53405;57.012;40.984;2022-07-29T01:52:19;11.98;;;10.30;;
59390;SDS011;53405;57.012;40.984;2022-07-29T01:55:01;12.05;;;10.18;;
59390;SDS011;53405;57.012;40.984;2022-07-29T01:57:53;14.20;;;10.90;;
59390;SDS011;53405;57.012;40.984;2022-07-29T02:00:43;15.05;;;11.75;;
59390;SDS011;53405;57.012;40.984;2022-07-29T02:03:33;12.95;;;11.45;;
59390;SDS011;53405;57.012;40.984;2022-07-29T02:06:23;13.73;;;10.93;;
59390;SDS011;53405;57.012;40.984;2022-07-29T02:09:13;16.48;;;12.25;;
59390;SDS011;53405;57.012;40.984;2022-07-29T02:12:03;19.23;;;12.20;;
59390;SDS011;53405;57.012;40.984;2022-07-29T02:14:53;16.15;;;11.77;;
59390;SDS011;53405;57.012;40.984;2022-07-29T02:17:48;14.80;;;11.75;;
59390;SDS011;53405;57.012;40.984;2022-07-29T02:20:38;18.85;;;13.38;;
59390;SDS011;53405;57.012;40.984;2022-07-29T02:23:28;19.65;;;13.25;;
59390;SDS011;53405;57.012;40.984;2022-07-29T02:26:20;19.30;;;14.02;;
59390;SDS011;53405;57.012;40.984;2022-07-29T02:29:10;24.55;;;15.48;;
59390;SDS011;53405;57.012;40.984;2022-07-29T02:32:02;26.05;;;16.20;;
59390;SDS011;53405;57.012;40.984;2022-07-29T02:34:51;22.13;;;15.10;;
59390;SDS011;53405;57.012;40.984;2022-07-29T02:37:39;20.60;;;14.27;;
59390;SDS011;53405;57.012;40.984;2022-07-29T02:43:15;19.60;;;14.00;;
59390;SDS011;53405;57.012;40.984;2022-07-29T02:46:07;16.48;;;13.43;;
59390;SDS011;53405;57.012;40.984;2022-07-29T02:52:03;17.23;;;13.18;;
59390;SDS011;53405;57.012;40.984;2022-07-29T02:58:02;17.20;;;12.85;;
59390;SDS011;53405;57.012;40.984;2022-07-29T03:01:13;17.42;;;13.07;;
59390;SDS011;53405;57.012;40.984;2022-07-29T03:04:06;19.77;;;14.02;;
59390;SDS011;53405;57.012;40.984;2022-07-29T03:06:58;16.55;;;13.30;;
59390;SDS011;53405;57.012;40.984;2022-07-29T03:09:47;16.30;;;13.23;;
59390;SDS011;53405;57.012;40.984;2022-07-29T03:12:37;17.30;;;13.55;;
59390;SDS011;53405;57.012;40.984;2022-07-29T03:15:25;18.23;;;13.30;;
59390;SDS011;53405;57.012;40.984;2022-07-29T03:18:13;16.52;;;12.85;;
59390;SDS011;53405;57.012;40.984;2022-07-29T03:21:02;18.95;;;15.40;;
59390;SDS011;53405;57.012;40.984;2022-07-29T03:23:50;18.27;;;15.18;;
59390;SDS011;53405;57.012;40.984;2022-07-29T03:26:38;15.65;;;13.15;;
59390;SDS011;53405;57.012;40.984;2022-07-29T03:29:25;17.08;;;13.48;;
59390;SDS011;53405;57.012;40.984;2022-07-29T03:32:14;17.40;;;14.03;;
59390;SDS011;53405;57.012;40.984;2022-07-29T03:35:02;16.05;;;13.35;;
59390;SDS011;53405;57.012;40.984;2022-07-29T03:37:51;17.02;;;12.88;;
59390;SDS011;53405;57.012;40.984;2022-07-29T03:40:49;18.85;;;13.75;;
59390;SDS011;53405;57.012;40.984;2022-07-29T03:43:41;18.27;;;14.20;;
59390;SDS011;53405;57.012;40.984;2022-07-29T03:46:30;16.92;;;14.80;;
59390;SDS011;53405;57.012;40.984;2022-07-29T03:49:20;15.38;;;13.65;;
59390;SDS011;53405;57.012;40.984;2022-07-29T03:52:10;16.85;;;14.07;;
59390;SDS011;53405;57.012;40.984;2022-07-29T03:54:58;17.60;;;14.18;;
59390;SDS011;53405;57.012;40.984;2022-07-29T03:57:46;13.27;;;11.38;;
59390;SDS011;53405;57.012;40.984;2022-07-29T04:03:23;14.25;;;11.88;;
59390;SDS011;53405;57.012;40.984;2022-07-29T04:06:11;12.77;;;9.88;;
59390;SDS011;53405;57.012;40.984;2022-07-29T04:08:59;11.95;;;9.93;;
59390;SDS011;53405;57.012;40.984;2022-07-29T04:11:46;13.80;;;11.55;;
59390;SDS011;53405;57.012;40.984;2022-07-29T04:14:34;12.05;;;10.13;;
59390;SDS011;53405;57.012;40.984;2022-07-29T04:17:22;13.40;;;9.98;;
59390;SDS011;53405;57.012;40.984;2022-07-29T04:20:09;13.27;;;10.27;;
59390;SDS011;53405;57.012;40.984;2022-07-29T04:23:00;13.43;;;9.68;;
59390;SDS011;53405;57.012;40.984;2022-07-29T04:25:47;9.88;;;7.90;;
59390;SDS011;53405;57.012;40.984;2022-07-29T04:28:35;9.90;;;7.82;;
59390;SDS011;53405;57.012;40.984;2022-07-29T04:31:22;11.10;;;8.25;;
59390;SDS011;53405;57.012;40.984;2022-07-29T04:34:11;10.05;;;7.45;;
59390;SDS011;53405;57.012;40.984;2022-07-29T04:37:00;10.60;;;7.43;;
59390;SDS011;53405;57.012;40.984;2022-07-29T04:39:48;9.75;;;7.05;;
59390;SDS011;53405;57.012;40.984;2022-07-29T04:42:35;11.27;;;8.32;;
59390;SDS011;53405;57.012;40.984;2022-07-29T04:45:22;11.52;;;8.25;;
59390;SDS011;53405;57.012;40.984;2022-07-29T04:48:11;13.33;;;8.50;;
59390;SDS011;53405;57.012;40.984;2022-07-29T04:50:58;10.88;;;8.02;;
59390;SDS011;53405;57.012;40.984;2022-07-29T04:53:46;11.10;;;8.27;;
59390;SDS011;53405;57.012;40.984;2022-07-29T04:56:33;10.50;;;8.63;;
59390;SDS011;53405;57.012;40.984;2022-07-29T04:59:21;11.93;;;8.52;;
59390;SDS011;53405;57.012;40.984;2022-07-29T05:02:08;11.82;;;7.80;;
59390;SDS011;53405;57.012;40.984;2022-07-29T05:04:56;9.63;;;7.00;;
59390;SDS011;53405;57.012;40.984;2022-07-29T05:07:43;11.13;;;7.55;;
59390;SDS011;53405;57.012;40.984;2022-07-29T05:10:31;9.00;;;7.40;;
59390;SDS011;53405;57.012;40.984;2022-07-29T05:13:19;10.25;;;7.50;;
59390;SDS011;53405;57.012;40.984;2022-07-29T05:16:07;9.38;;;7.20;;
59390;SDS011;53405;57.012;40.984;2022-07-29T05:18:55;9.48;;;7.45;;
59390;SDS011;53405;57.012;40.984;2022-07-29T05:21:44;8.95;;;6.68;;
59390;SDS011;53405;57.012;40.984;2022-07-29T05:24:31;9.50;;;7.28;;
59390;SDS011;53405;57.012;40.984;2022-07-29T05:27:19;9.70;;;6.68;;
59390;SDS011;53405;57.012;40.984;2022-07-29T05:30:07;8.55;;;5.40;;
59390;SDS011;53405;57.012;40.984;2022-07-29T05:32:55;8.77;;;5.55;;
59390;SDS011;53405;57.012;40.984;2022-07-29T05:35:42;6.07;;;2.80;;
59390;SDS011;53405;57.012;40.984;2022-07-29T05:38:30;5.28;;;2.30;;
59390;SDS011;53405;57.012;40.984;2022-07-29T05:41:18;5.03;;;2.33;;
59390;SDS011;53405;57.012;40.984;2022-07-29T05:44:06;3.92;;;1.83;;
59390;SDS011;53405;57.012;40.984;2022-07-29T05:46:53;2.92;;;1.58;;
59390;SDS011;53405;57.012;40.984;2022-07-29T05:49:41;2.17;;;1.35;;
59390;SDS011;53405;57.012;40.984;2022-07-29T05:52:28;1.92;;;1.17;;
59390;SDS011;53405;57.012;40.984;2022-07-29T05:55:16;2.65;;;1.17;;
59390;SDS011;53405;57.012;40.984;2022-07-29T05:58:03;3.15;;;1.90;;
59390;SDS011;53405;57.012;40.984;2022-07-29T06:00:51;2.50;;;1.48;;
59390;SDS011;53405;57.012;40.984;2022-07-29T06:03:39;5.18;;;1.92;;
59390;SDS011;53405;57.012;40.984;2022-07-29T06:06:28;3.10;;;1.60;;
59390;SDS011;53405;57.012;40.984;2022-07-29T06:09:16;8.32;;;5.03;;
59390;SDS011;53405;57.012;40.984;2022-07-29T06:12:04;2.85;;;1.67;;
59390;SDS011;53405;57.012;40.984;2022-07-29T06:14:52;4.97;;;1.60;;
59390;SDS011;53405;57.012;40.984;2022-07-29T06:17:39;2.97;;;1.42;;
59390;SDS011;53405;57.012;40.984;2022-07-29T06:20:28;3.50;;;1.50;;
59390;SDS011;53405;57.012;40.984;2022-07-29T06:23:17;2.90;;;1.45;;
59390;SDS011;53405;57.012;40.984;2022-07-29T06:26:05;3.83;;;1.65;;
59390;SDS011;53405;57.012;40.984;2022-07-29T06:28:53;3.63;;;1.30;;
59390;SDS011;53405;57.012;40.984;2022-07-29T06:31:40;2.40;;;1.20;;
59390;SDS011;53405;57.012;40.984;2022-07-29T06:34:28;3.10;;;1.35;;
59390;SDS011;53405;57.012;40.984;2022-07-29T06:37:16;2.42;;;1.30;;
59390;SDS011;53405;57.012;40.984;2022-07-29T06:40:04;2.22;;;1.30;;
59390;SDS011;53405;57.012;40.984;2022-07-29T06:43:19;2.35;;;1.42;;
59390;SDS011;53405;57.012;40.984;2022-07-29T06:46:07;3.45;;;1.63;;
59390;SDS011;53405;57.012;40.984;2022-07-29T06:48:56;2.30;;;1.45;;
59390;SDS011;53405;57.012;40.984;2022-07-29T06:51:44;3.50;;;1.90;;
59390;SDS011;53405;57.012;40.984;2022-07-29T06:54:31;3.95;;;1.75;;
59390;SDS011;53405;57.012;40.984;2022-07-29T06:57:19;3.30;;;1.75;;
59390;SDS011;53405;57.012;40.984;2022-07-29T07:00:06;2.67;;;2.00;;
59390;SDS011;53405;57.012;40.984;2022-07-29T07:02:55;3.13;;;2.03;;
59390;SDS011;53405;57.012;40.984;2022-07-29T07:05:43;6.95;;;4.03;;
59390;SDS011;53405;57.012;40.984;2022-07-29T07:08:32;3.75;;;2.10;;
59390;SDS011;53405;57.012;40.984;2022-07-29T07:11:19;3.22;;;2.05;;
59390;SDS011;53405;57.012;40.984;2022-07-29T07:14:07;5.70;;;2.47;;
59390;SDS011;53405;57.012;40.984;2022-07-29T07:16:55;4.22;;;2.20;;
59390;SDS011;53405;57.012;40.984;2022-07-29T07:19:42;4.03;;;2.70;;
59390;SDS011;53405;57.012;40.984;2022-07-29T07:22:30;5.65;;;2.47;;
59390;SDS011;53405;57.012;40.984;2022-07-29T07:25:20;4.35;;;3.10;;
59390;SDS011;53405;57.012;40.984;2022-07-29T07:28:08;5.30;;;2.80;;
59390;SDS011;53405;57.012;40.984;2022-07-29T07:30:56;6.05;;;3.60;;
59390;SDS011;53405;57.012;40.984;2022-07-29T07:33:43;5.35;;;3.28;;
59390;SDS011;53405;57.012;40.984;2022-07-29T07:36:31;6.70;;;3.25;;
59390;SDS011;53405;57.012;40.984;2022-07-29T07:39:18;5.15;;;2.80;;
59390;SDS011;53405;57.012;40.984;2022-07-29T07:42:06;6.78;;;3.75;;
59390;SDS011;53405;57.012;40.984;2022-07-29T07:44:54;5.72;;;3.20;;
59390;SDS011;53405;57.012;40.984;2022-07-29T07:47:57;5.05;;;3.20;;
59390;SDS011;53405;57.012;40.984;2022-07-29T07:50:45;5.68;;;3.70;;
59390;SDS011;53405;57.012;40.984;2022-07-29T07:53:33;5.93;;;3.72;;
59390;SDS011;53405;57.012;40.984;2022-07-29T07:56:21;6.65;;;4.70;;
59390;SDS011;53405;57.012;40.984;2022-07-29T07:59:09;5.43;;;3.75;;
59390;SDS011;53405;57.012;40.984;2022-07-29T08:01:56;7.13;;;3.83;;
59390;SDS011;53405;57.012;40.984;2022-07-29T08:04:50;5.85;;;3.40;;
59390;SDS011;53405;57.012;40.984;2022-07-29T08:07:37;5.80;;;3.83;;
59390;SDS011;53405;57.012;40.984;2022-07-29T08:10:25;6.75;;;4.30;;
59390;SDS011;53405;57.012;40.984;2022-07-29T08:13:31;7.88;;;5.22;;
59390;SDS011;53405;57.012;40.984;2022-07-29T08:16:19;9.05;;;4.28;;
59390;SDS011;53405;57.012;40.984;2022-07-29T08:19:07;6.20;;;3.80;;
59390;SDS011;53405;57.012;40.984;2022-07-29T08:21:55;5.68;;;3.95;;
59390;SDS011;53405;57.012;40.984;2022-07-29T08:24:43;5.50;;;3.65;;
59390;SDS011;53405;57.012;40.984;2022-07-29T08:27:30;7.57;;;4.00;;
59390;SDS011;53405;57.012;40.984;2022-07-29T08:30:28;7.13;;;4.45;;
59390;SDS011;53405;57.012;40.984;2022-07-29T08:33:16;8.77;;;4.50;;
59390;SDS011;53405;57.012;40.984;2022-07-29T08:36:04;7.72;;;3.95;;
59390;SDS011;53405;57.012;40.984;2022-07-29T08:38:53;6.03;;;3.83;;
59390;SDS011;53405;57.012;40.984;2022-07-29T08:41:41;6.15;;;3.90;;
59390;SDS011;53405;57.012;40.984;2022-07-29T08:44:30;7.97;;;4.32;;
59390;SDS011;53405;57.012;40.984;2022-07-29T08:47:19;7.65;;;4.40;;
59390;SDS011;53405;57.012;40.984;2022-07-29T08:50:07;8.27;;;6.22;;
59390;SDS011;53405;57.012;40.984;2022-07-29T08:55:46;8.73;;;6.95;;
59390;SDS011;53405;57.012;40.984;2022-07-29T08:58:35;9.45;;;6.70;;
59390;SDS011;53405;57.012;40.984;2022-07-29T09:01:23;10.38;;;6.50;;
59390;SDS011;53405;57.012;40.984;2022-07-29T09:04:14;8.38;;;6.72;;
59390;SDS011;53405;57.012;40.984;2022-07-29T09:07:03;9.13;;;6.30;;
59390;SDS011;53405;57.012;40.984;2022-07-29T09:09:52;10.35;;;8.57;;
59390;SDS011;53405;57.012;40.984;2022-07-29T09:12:41;11.80;;;8.85;;
59390;SDS011;53405;57.012;40.984;2022-07-29T09:15:29;11.88;;;10.05;;
59390;SDS011;53405;57.012;40.984;2022-07-29T09:18:36;11.68;;;9.75;;
59390;SDS011;53405;57.012;40.984;2022-07-29T09:21:25;16.00;;;12.95;;
59390;SDS011;53405;57.012;40.984;2022-07-29T09:24:46;17.52;;;14.52;;
59390;SDS011;53405;57.012;40.984;2022-07-29T09:27:34;16.25;;;14.48;;
59390;SDS011;53405;57.012;40.984;2022-07-29T09:30:22;13.13;;;11.70;;
59390;SDS011;53405;57.012;40.984;2022-07-29T09:33:10;14.02;;;12.30;;
59390;SDS011;53405;57.012;40.984;2022-07-29T09:36:04;13.95;;;11.75;;
59390;SDS011;53405;57.012;40.984;2022-07-29T09:38:57;12.85;;;10.00;;
59390;SDS011;53405;57.012;40.984;2022-07-29T09:41:49;26.80;;;10.15;;
59390;SDS011;53405;57.012;40.984;2022-07-29T09:44:42;8.77;;;5.90;;
59390;SDS011;53405;57.012;40.984;2022-07-29T09:47:43;7.18;;;5.32;;
59390;SDS011;53405;57.012;40.984;2022-07-29T09:50:36;8.43;;;4.63;;
59390;SDS011;53405;57.012;40.984;2022-07-29T09:53:33;7.43;;;4.03;;
59390;SDS011;53405;57.012;40.984;2022-07-29T09:56:38;7.57;;;4.72;;
59390;SDS011;53405;57.012;40.984;2022-07-29T09:59:27;6.25;;;4.50;;
59390;SDS011;53405;57.012;40.984;2022-07-29T10:02:15;7.60;;;4.32;;
59390;SDS011;53405;57.012;40.984;2022-07-29T10:05:10;7.10;;;4.38;;
59390;SDS011;53405;57.012;40.984;2022-07-29T10:08:09;9.82;;;4.47;;
59390;SDS011;53405;57.012;40.984;2022-07-29T10:11:09;9.63;;;4.80;;
59390;SDS011;53405;57.012;40.984;2022-07-29T10:14:02;9.05;;;4.68;;
59390;SDS011;53405;57.012;40.984;2022-07-29T10:16:50;11.55;;;4.53;;
59390;SDS011;53405;57.012;40.984;2022-07-29T10:19:39;8.20;;;4.43;;
59390;SDS011;53405;57.012;40.984;2022-07-29T10:22:26;6.72;;;3.83;;
59390;SDS011;53405;57.012;40.984;2022-07-29T10:25:34;7.33;;;4.43;;
59390;SDS011;53405;57.012;40.984;2022-07-29T10:28:23;6.22;;;3.78;;
59390;SDS011;53405;57.012;40.984;2022-07-29T10:31:15;8.48;;;3.22;;
59390;SDS011;53405;57.012;40.984;2022-07-29T10:34:13;8.27;;;3.70;;
59390;SDS011;53405;57.012;40.984;2022-07-29T10:37:31;6.00;;;2.70;;
59390;SDS011;53405;57.012;40.984;2022-07-29T10:46:51;5.63;;;2.20;;
59390;SDS011;53405;57.012;40.984;2022-07-29T10:49:39;6.80;;;2.33;;
59390;SDS011;53405;57.012;40.984;2022-07-29T10:52:52;4.30;;;2.03;;
59390;SDS011;53405;57.012;40.984;2022-07-29T10:55:43;13.40;;;2.38;;
59390;SDS011;53405;57.012;40.984;2022-07-29T10:58:34;6.40;;;2.08;;
59390;SDS011;53405;57.012;40.984;2022-07-29T11:01:28;5.13;;;1.90;;
59390;SDS011;53405;57.012;40.984;2022-07-29T11:14:07;2.85;;;1.33;;
59390;SDS011;53405;57.012;40.984;2022-07-29T11:17:02;3.40;;;1.20;;
59390;SDS011;53405;57.012;40.984;2022-07-29T11:19:52;3.55;;;1.30;;
59390;SDS011;53405;57.012;40.984;2022-07-29T11:23:28;5.03;;;1.30;;
59390;SDS011;53405;57.012;40.984;2022-07-29T11:26:17;2.95;;;1.30;;
59390;SDS011;53405;57.012;40.984;2022-07-29T11:29:20;3.63;;;1.15;;
59390;SDS011;53405;57.012;40.984;2022-07-29T11:32:12;4.22;;;1.55;;
59390;SDS011;53405;57.012;40.984;2022-07-29T11:35:19;3.35;;;1.55;;
59390;SDS011;53405;57.012;40.984;2022-07-29T11:41:21;4.07;;;1.27;;
59390;SDS011;53405;57.012;40.984;2022-07-29T11:44:12;3.55;;;1.13;;
59390;SDS011;53405;57.012;40.984;2022-07-29T11:47:02;3.65;;;1.30;;
59390;SDS011;53405;57.012;40.984;2022-07-29T11:49:51;5.28;;;1.27;;
59390;SDS011;53405;57.012;40.984;2022-07-29T11:52:40;4.63;;;1.25;;
59390;SDS011;53405;57.012;40.984;2022-07-29T11:55:33;4.25;;;1.20;;
59390;SDS011;53405;57.012;40.984;2022-07-29T11:58:25;5.60;;;1.50;;
59390;SDS011;53405;57.012;40.984;2022-07-29T12:01:13;5.32;;;1.52;;
59390;SDS011;53405;57.012;40.984;2022-07-29T12:04:07;4.50;;;1.50;;
59390;SDS011;53405;57.012;40.984;2022-07-29T12:06:55;4.97;;;1.23;;
59390;SDS011;53405;57.012;40.984;2022-07-29T12:10:02;4.47;;;1.55;;
59390;SDS011;53405;57.012;40.984;2022-07-29T12:12:51;7.70;;;1.42;;
59390;SDS011;53405;57.012;40.984;2022-07-29T12:15:39;5.22;;;1.13;;
59390;SDS011;53405;57.012;40.984;2022-07-29T12:18:27;2.47;;;0.98;;
59390;SDS011;53405;57.012;40.984;2022-07-29T12:21:15;5.03;;;0.90;;
59390;SDS011;53405;57.012;40.984;2022-07-29T12:24:02;4.38;;;1.00;;
59390;SDS011;53405;57.012;40.984;2022-07-29T12:26:59;4.03;;;1.20;;
59390;SDS011;53405;57.012;40.984;2022-07-29T12:29:59;5.47;;;1.17;;
59390;SDS011;53405;57.012;40.984;2022-07-29T12:32:51;6.18;;;1.48;;
59390;SDS011;53405;57.012;40.984;2022-07-29T12:35:42;5.97;;;1.38;;
59390;SDS011;53405;57.012;40.984;2022-07-29T12:38:36;5.13;;;1.38;;
59390;SDS011;53405;57.012;40.984;2022-07-29T12:41:28;3.05;;;1.10;;
59390;SDS011;53405;57.012;40.984;2022-07-29T12:44:16;4.25;;;1.33;;
59390;SDS011;53405;57.012;40.984;2022-07-29T12:47:04;4.97;;;1.20;;
59390;SDS011;53405;57.012;40.984;2022-07-29T12:50:06;4.00;;;1.10;;
59390;SDS011;53405;57.012;40.984;2022-07-29T12:53:11;4.07;;;1.30;;
59390;SDS011;53405;57.012;40.984;2022-07-29T12:56:01;5.55;;;1.10;;
59390;SDS011;53405;57.012;40.984;2022-07-29T12:58:54;4.13;;;1.08;;
59390;SDS011;53405;57.012;40.984;2022-07-29T13:01:42;2.87;;;0.90;;
59390;SDS011;53405;57.012;40.984;2022-07-29T13:04:30;5.82;;;1.20;;
59390;SDS011;53405;57.012;40.984;2022-07-29T13:07:25;5.18;;;1.85;;
59390;SDS011;53405;57.012;40.984;2022-07-29T13:13:06;4.75;;;1.20;;
59390;SDS011;53405;57.012;40.984;2022-07-29T13:16:06;2.30;;;1.10;;
59390;SDS011;53405;57.012;40.984;2022-07-29T13:19:08;4.20;;;1.10;;
59390;SDS011;53405;57.012;40.984;2022-07-29T13:21:57;5.32;;;1.13;;
59390;SDS011;53405;57.012;40.984;2022-07-29T13:24:46;3.08;;;1.00;;
59390;SDS011;53405;57.012;40.984;2022-07-29T13:27:35;3.33;;;1.00;;
59390;SDS011;53405;57.012;40.984;2022-07-29T13:30:25;5.70;;;1.27;;
59390;SDS011;53405;57.012;40.984;2022-07-29T13:33:12;3.60;;;1.10;;
59390;SDS011;53405;57.012;40.984;2022-07-29T13:36:01;2.85;;;1.17;;
59390;SDS011;53405;57.012;40.984;2022-07-29T13:38:49;3.72;;;1.05;;
59390;SDS011;53405;57.012;40.984;2022-07-29T13:41:37;3.20;;;1.13;;
59390;SDS011;53405;57.012;40.984;2022-07-29T13:44:24;6.18;;;1.38;;
59390;SDS011;53405;57.012;40.984;2022-07-29T13:47:12;3.78;;;1.58;;
59390;SDS011;53405;57.012;40.984;2022-07-29T13:50:00;3.95;;;1.50;;
59390;SDS011;53405;57.012;40.984;2022-07-29T13:52:49;5.88;;;1.70;;
59390;SDS011;53405;57.012;40.984;2022-07-29T13:55:37;5.40;;;1.77;;
59390;SDS011;53405;57.012;40.984;2022-07-29T13:58:25;5.28;;;1.45;;
59390;SDS011;53405;57.012;40.984;2022-07-29T14:01:13;5.80;;;1.40;;
59390;SDS011;53405;57.012;40.984;2022-07-29T14:04:06;3.75;;;1.30;;
59390;SDS011;53405;57.012;40.984;2022-07-29T14:06:54;2.35;;;1.02;;
59390;SDS011;53405;57.012;40.984;2022-07-29T14:09:52;5.25;;;1.30;;
59390;SDS011;53405;57.012;40.984;2022-07-29T14:12:39;2.83;;;1.10;;
59390;SDS011;53405;57.012;40.984;2022-07-29T14:15:28;7.85;;;1.48;;
59390;SDS011;53405;57.012;40.984;2022-07-29T14:18:16;4.28;;;1.30;;
59390;SDS011;53405;57.012;40.984;2022-07-29T14:21:03;3.10;;;1.10;;
59390;SDS011;53405;57.012;40.984;2022-07-29T14:23:51;5.60;;;1.45;;
59390;SDS011;53405;57.012;40.984;2022-07-29T14:26:41;3.63;;;1.02;;
59390;SDS011;53405;57.012;40.984;2022-07-29T14:29:29;3.85;;;1.15;;
59390;SDS011;53405;57.012;40.984;2022-07-29T14:32:17;5.63;;;1.10;;
59390;SDS011;53405;57.012;40.984;2022-07-29T14:35:05;3.22;;;1.70;;
59390;SDS011;53405;57.012;40.984;2022-07-29T14:40:41;3.33;;;1.15;;
59390;SDS011;53405;57.012;40.984;2022-07-29T14:43:28;4.32;;;1.52;;
59390;SDS011;53405;57.012;40.984;2022-07-29T14:46:16;4.28;;;1.60;;
59390;SDS011;53405;57.012;40.984;2022-07-29T14:49:03;3.88;;;1.30;;
59390;SDS011;53405;57.012;40.984;2022-07-29T14:51:52;3.78;;;1.20;;
59390;SDS011;53405;57.012;40.984;2022-07-29T14:54:40;4.07;;;1.20;;
59390;SDS011;53405;57.012;40.984;2022-07-29T14:57:27;3.88;;;1.00;;
59390;SDS011;53405;57.012;40.984;2022-07-29T15:00:16;3.23;;;1.20;;
59390;SDS011;53405;57.012;40.984;2022-07-29T15:05:52;10.65;;;1.60;;
59390;SDS011;53405;57.012;40.984;2022-07-29T15:08:39;6.47;;;1.65;;
59390;SDS011;53405;57.012;40.984;2022-07-29T15:11:27;2.90;;;1.20;;
59390;SDS011;53405;57.012;40.984;2022-07-29T15:14:14;5.75;;;1.13;;
59390;SDS011;53405;57.012;40.984;2022-07-29T15:17:02;3.15;;;1.13;;
59390;SDS011;53405;57.012;40.984;2022-07-29T15:19:50;5.67;;;1.23;;
59390;SDS011;53405;57.012;40.984;2022-07-29T15:22:37;4.53;;;1.83;;
59390;SDS011;53405;57.012;40.984;2022-07-29T15:25:26;4.38;;;1.35;;
59390;SDS011;53405;57.012;40.984;2022-07-29T15:28:13;4.30;;;1.50;;
59390;SDS011;53405;57.012;40.984;2022-07-29T15:31:01;3.38;;;1.25;;
59390;SDS011;53405;57.012;40.984;2022-07-29T15:33:49;2.95;;;1.00;;
59390;SDS011;53405;57.012;40.984;2022-07-29T15:36:40;3.00;;;1.20;;
59390;SDS011;53405;57.012;40.984;2022-07-29T15:39:43;4.72;;;1.20;;
59390;SDS011;53405;57.012;40.984;2022-07-29T15:42:32;4.60;;;1.42;;
59390;SDS011;53405;57.012;40.984;2022-07-29T15:45:22;4.38;;;1.38;;
59390;SDS011;53405;57.012;40.984;2022-07-29T15:48:11;3.40;;;1.33;;
59390;SDS011;53405;57.012;40.984;2022-07-29T15:50:59;3.92;;;1.10;;
59390;SDS011;53405;57.012;40.984;2022-07-29T15:53:47;3.65;;;1.10;;
59390;SDS011;53405;57.012;40.984;2022-07-29T15:56:34;3.38;;;1.20;;
59390;SDS011;53405;57.012;40.984;2022-07-29T15:59:22;3.15;;;1.23;;
59390;SDS011;53405;57.012;40.984;2022-07-29T16:02:10;4.68;;;1.60;;
59390;SDS011;53405;57.012;40.984;2022-07-29T16:04:58;5.32;;;1.60;;
59390;SDS011;53405;57.012;40.984;2022-07-29T16:07:48;4.70;;;1.52;;
59390;SDS011;53405;57.012;40.984;2022-07-29T16:10:36;4.13;;;1.50;;
59390;SDS011;53405;57.012;40.984;2022-07-29T16:13:23;3.42;;;1.35;;
59390;SDS011;53405;57.012;40.984;2022-07-29T16:16:11;4.68;;;1.55;;
59390;SDS011;53405;57.012;40.984;2022-07-29T16:18:58;6.82;;;1.95;;
59390;SDS011;53405;57.012;40.984;2022-07-29T16:21:46;7.23;;;1.40;;
59390;SDS011;53405;57.012;40.984;2022-07-29T16:24:34;5.57;;;1.70;;
59390;SDS011;53405;57.012;40.984;2022-07-29T16:27:21;5.30;;;1.40;;
59390;SDS011;53405;57.012;40.984;2022-07-29T16:30:13;3.83;;;1.50;;
59390;SDS011;53405;57.012;40.984;2022-07-29T16:33:00;4.45;;;1.63;;
59390;SDS011;53405;57.012;40.984;2022-07-29T16:35:53;7.75;;;2.63;;
59390;SDS011;53405;57.012;40.984;2022-07-29T16:38:41;5.00;;;1.80;;
59390;SDS011;53405;57.012;40.984;2022-07-29T16:41:28;5.85;;;1.92;;
59390;SDS011;53405;57.012;40.984;2022-07-29T16:44:16;5.20;;;1.50;;
59390;SDS011;53405;57.012;40.984;2022-07-29T16:47:04;4.10;;;1.55;;
59390;SDS011;53405;57.012;40.984;2022-07-29T16:49:51;4.38;;;1.40;;
59390;SDS011;53405;57.012;40.984;2022-07-29T16:52:39;4.33;;;1.33;;
59390;SDS011;53405;57.012;40.984;2022-07-29T16:55:27;3.50;;;1.13;;
59390;SDS011;53405;57.012;40.984;2022-07-29T16:58:15;9.68;;;1.73;;
59390;SDS011;53405;57.012;40.984;2022-07-29T17:01:02;4.80;;;1.60;;
59390;SDS011;53405;57.012;40.984;2022-07-29T17:03:50;5.03;;;1.50;;
59390;SDS011;53405;57.012;40.984;2022-07-29T17:06:53;4.93;;;1.60;;
59390;SDS011;53405;57.012;40.984;2022-07-29T17:09:41;6.43;;;2.20;;
59390;SDS011;53405;57.012;40.984;2022-07-29T17:12:28;6.85;;;2.05;;
59390;SDS011;53405;57.012;40.984;2022-07-29T17:15:16;6.55;;;2.25;;
59390;SDS011;53405;57.012;40.984;2022-07-29T17:18:04;8.40;;;3.33;;
59390;SDS011;53405;57.012;40.984;2022-07-29T17:20:52;9.50;;;2.50;;
59390;SDS011;53405;57.012;40.984;2022-07-29T17:27:18;7.18;;;3.20;;
59390;SDS011;53405;57.012;40.984;2022-07-29T17:30:06;11.20;;;5.87;;
59390;SDS011;53405;57.012;40.984;2022-07-29T17:32:54;9.45;;;4.85;;
59390;SDS011;53405;57.012;40.984;2022-07-29T17:35:42;8.05;;;3.38;;
59390;SDS011;53405;57.012;40.984;2022-07-29T17:38:49;10.95;;;3.85;;